Time;durP1;ratioP1;P1;durP2;ratioP2;P2;SDS_P1;SDS_P2;PMS_P1;PMS_P2;Temp;Humidity;BMP_temperature;BMP_pressure;BME280_temperature;BME280_humidity;BME280_pressure;Samples;Min_cycle;Max_cycle;Signal;HPM_P1;HPM_P2
2023/11/09 00:03:06;;;;;;;1999.90;999.90;;;;;;;13.42;100.00;100150.34;10377063;28;20053;-63
2023/11/09 00:08:08;;;;;;;1999.90;999.90;;;;;;;13.52;100.00;100142.56;10377390;28;20489;-63
2023/11/09 00:13:11;;;;;;;1999.90;999.90;;;;;;;13.67;100.00;100137.88;10378449;28;20133;-63
2023/11/09 00:18:21;;;;;;;1999.90;999.90;;;;;;;13.90;98.70;100128.94;10378255;28;20046;-63
2023/11/09 00:23:23;;;;;;;1999.90;999.90;;;;;;;14.00;100.00;100122.91;10377533;28;20509;-63
2023/11/09 00:28:26;;;;;;;1999.90;999.90;;;;;;;13.61;100.00;100115.50;10378364;28;20080;-62
2023/11/09 00:33:28;;;;;;;1999.90;999.90;;;;;;;13.93;100.00;100107.59;10377702;28;20129;-62
2023/11/09 00:38:30;;;;;;;1999.90;999.90;;;;;;;14.20;98.29;100108.09;10376917;28;20060;-63
2023/11/09 00:43:33;;;;;;;1999.90;999.90;;;;;;;14.31;95.58;100093.06;10376254;28;20046;-63
2023/11/09 00:48:35;;;;;;;1999.90;999.90;;;;;;;14.10;96.83;100081.69;10377052;28;20504;-63
2023/11/09 00:53:38;;;;;;;1999.90;999.90;;;;;;;14.00;100.00;100076.34;10376957;28;20053;-63
2023/11/09 00:58:40;;;;;;;1999.90;999.90;;;;;;;14.32;95.71;100064.91;10375669;28;20058;-62
2023/11/09 01:03:42;;;;;;;1999.90;999.90;;;;;;;13.74;100.00;100065.38;10376611;28;20046;-63
2023/11/09 01:08:45;;;;;;;1999.90;999.90;;;;;;;13.86;100.00;100059.09;10376993;28;20061;-63
2023/11/09 01:13:47;;;;;;;1999.90;999.90;;;;;;;13.97;100.00;100050.31;10375545;28;20401;-63
2023/11/09 01:18:49;;;;;;;1999.90;999.90;;;;;;;13.61;100.00;100048.94;10376156;28;20133;-63
2023/11/09 01:23:52;;;;;;;1999.90;999.90;;;;;;;14.09;99.48;100044.03;10375666;28;20050;-63
2023/11/09 01:28:54;;;;;;;1999.90;999.90;;;;;;;13.72;100.00;100030.47;10375135;28;20486;-63
2023/11/09 01:33:57;;;;;;;1999.90;999.90;;;;;;;14.22;98.89;100040.34;10374894;28;20583;-63
2023/11/09 01:39:15;;;;;;;1999.90;999.90;;;;;;;13.76;100.00;100026.63;10375385;28;20409;-63
2023/11/09 01:44:17;;;;;;;1999.90;999.90;;;;;;;13.77;100.00;100023.03;10373585;28;20405;-63
2023/11/09 01:49:20;;;;;;;1999.90;999.90;;;;;;;14.06;99.72;100012.69;10373724;28;20420;-62
2023/11/09 01:54:23;;;;;;;1999.90;999.90;;;;;;;14.26;98.63;99999.63;10374358;28;20401;-62
2023/11/09 01:59:28;;;;;;;1999.90;999.90;;;;;;;14.18;99.37;99996.81;10374407;28;20063;-62
2023/11/09 02:04:30;;;;;;;1999.90;999.90;;;;;;;13.87;100.00;99992.34;10373708;28;20053;-62
2023/11/09 02:09:34;;;;;;;1999.90;999.90;;;;;;;13.54;98.44;99981.03;10372985;28;20100;-62
2023/11/09 02:14:36;;;;;;;1999.90;999.90;;;;;;;13.73;100.00;99966.34;10372821;28;20132;-62
2023/11/09 02:19:38;;;;;;;1999.90;999.90;;;;;;;13.47;100.00;99973.81;10373411;28;20054;-63
2023/11/09 02:24:44;;;;;;;1999.90;999.90;;;;;;;14.05;100.00;99965.44;10372844;28;20054;-63
2023/11/09 02:29:46;;;;;;;1999.90;999.90;;;;;;;14.53;96.47;99943.75;10373203;28;20056;-62
2023/11/09 02:34:49;;;;;;;1999.90;999.90;;;;;;;13.78;99.38;99929.16;10373096;28;20050;-63
2023/11/09 02:39:54;;;;;;;1999.90;999.90;;;;;;;14.05;100.00;99933.84;10374207;28;20058;-63
2023/11/09 02:44:57;;;;;;;1999.90;999.90;;;;;;;14.07;97.70;99924.03;10373036;28;20046;-63
2023/11/09 02:49:59;;;;;;;1999.90;999.90;;;;;;;14.20;98.53;99937.78;10374019;28;20060;-63
2023/11/09 02:55:01;;;;;;;1999.90;999.90;;;;;;;13.91;95.25;99927.97;10373259;28;20050;-63
2023/11/09 03:00:05;;;;;;;1999.90;999.90;;;;;;;14.25;98.27;99924.25;10373693;28;20481;-63
2023/11/09 03:05:07;;;;;;;1999.90;999.90;;;;;;;14.42;96.39;99922.78;10380618;28;20057;-62
2023/11/09 03:10:10;;;;;;;1999.90;999.90;;;;;;;13.77;100.00;99914.31;10380943;28;20053;-63
2023/11/09 03:15:13;;;;;;;1999.90;999.90;;;;;;;14.31;99.77;99914.00;10380198;28;20469;-63
2023/11/09 03:20:15;;;;;;;1999.90;999.90;;;;;;;14.24;100.00;99902.34;10380476;28;20056;-63
2023/11/09 03:25:17;;;;;;;1999.90;999.90;;;;;;;13.53;100.00;99902.28;10379679;28;20508;-63
2023/11/09 03:30:20;;;;;;;1999.90;999.90;;;;;;;14.42;97.34;99897.25;10380185;28;20054;-63
2023/11/09 03:35:23;;;;;;;1999.90;999.90;;;;;;;13.90;100.00;99894.75;10386511;23;20057;-67
2023/11/09 03:40:25;;;;;;;1999.90;999.90;;;;;;;14.25;99.07;99895.28;10362558;28;20104;-66
2023/11/09 03:45:28;;;;;;;1999.90;999.90;;;;;;;14.20;100.00;99900.94;10379693;28;20056;-67
2023/11/09 03:50:30;;;;;;;1999.90;999.90;;;;;;;14.31;97.52;99895.59;10379367;28;20054;-66
2023/11/09 03:55:33;;;;;;;1999.90;999.90;;;;;;;14.49;97.64;99887.03;10378706;28;20058;-66
2023/11/09 04:00:35;;;;;;;1999.90;999.90;;;;;;;14.43;98.16;99885.78;10361106;28;20451;-67
2023/11/09 04:05:38;;;;;;;1999.90;999.90;;;;;;;14.50;98.41;99893.97;10378915;28;20075;-66
2023/11/09 04:10:40;;;;;;;1999.90;999.90;;;;;;;14.37;97.43;99893.38;10378011;28;20476;-66
2023/11/09 04:15:43;;;;;;;1999.90;999.90;;;;;;;14.71;94.72;99890.41;10360138;28;20085;-66
2023/11/09 04:20:45;;;;;;;1999.90;999.90;;;;;;;14.49;97.10;99895.78;10378244;28;20082;-66
2023/11/09 04:25:50;;;;;;;1999.90;999.90;;;;;;;14.41;97.50;99876.34;10378031;28;20046;-66
2023/11/09 04:30:53;;;;;;;1999.90;999.90;;;;;;;14.57;94.64;99889.81;10360516;28;20060;-67
2023/11/09 04:35:55;;;;;;;1999.90;999.90;;;;;;;14.29;99.73;99886.16;10376860;28;20489;-66
2023/11/09 04:41:02;;;;;;;1999.90;999.90;;;;;;;14.79;95.99;99885.31;10377519;28;20049;-66
2023/11/09 04:46:11;;;;;;;1999.90;999.90;;;;;;;14.26;100.00;99894.31;10360549;28;20129;-66
2023/11/09 04:51:30;;;;;;;1999.90;999.90;;;;;;;14.58;98.18;99888.03;10377128;28;20046;-66
2023/11/09 04:56:42;;;;;;;1999.90;999.90;;;;;;;14.47;97.44;99884.56;10361870;28;20153;-66
2023/11/09 05:07:06;;;;;;;1999.90;999.90;;;;;;;14.85;93.33;99901.41;10361882;28;20064;-66
2023/11/09 05:12:09;;;;;;;1999.90;999.90;;;;;;;14.81;96.33;99891.25;10376780;28;20050;-67
2023/11/09 05:17:13;;;;;;;1999.90;999.90;;;;;;;14.96;94.49;99902.22;10376239;28;20050;-66
2023/11/09 05:22:17;;;;;;;1999.90;999.90;;;;;;;14.73;99.04;99901.69;10375393;28;20628;-66
2023/11/09 05:27:20;;;;;;;1999.90;999.90;;;;;;;15.04;93.75;99911.09;10374566;28;20060;-66
2023/11/09 05:32:24;;;;;;;1999.90;999.90;;;;;;;14.71;96.25;99908.88;10375679;28;20054;-66
2023/11/09 05:37:27;;;;;;;1999.90;999.90;;;;;;;15.18;93.79;99909.03;10375087;28;20081;-66
2023/11/09 05:42:30;;;;;;;1999.90;999.90;;;;;;;15.23;92.27;99918.19;10375929;28;20042;-66
2023/11/09 05:47:33;;;;;;;1999.90;999.90;;;;;;;15.29;91.58;99919.44;10374684;28;20496;-66
2023/11/09 05:52:35;;;;;;;1999.90;999.90;;;;;;;15.43;93.77;99923.44;10375085;28;20046;-66
2023/11/09 05:57:39;;;;;;;1999.90;999.90;;;;;;;14.66;97.60;99925.09;10374440;28;20413;-66
2023/11/09 06:02:41;;;;;;;1999.90;999.90;;;;;;;14.76;98.15;99928.59;10374797;28;20401;-67
2023/11/09 06:07:44;;;;;;;1999.90;999.90;;;;;;;14.98;93.80;99919.59;10374830;28;20509;-67
2023/11/09 06:12:46;;;;;;;1999.90;999.90;;;;;;;14.60;93.53;99936.16;10374705;28;20046;-66
2023/11/09 06:17:49;;;;;;;1999.90;999.90;;;;;;;14.89;90.80;99935.38;10374684;28;20054;-66
2023/11/09 06:22:53;;;;;;;1999.90;999.90;;;;;;;14.90;88.21;99944.97;10374613;28;20050;-66
2023/11/09 06:27:56;;;;;;;1999.90;999.90;;;;;;;14.76;91.80;99959.34;10373835;28;20050;-66
2023/11/09 06:32:58;;;;;;;1999.90;999.90;;;;;;;14.25;93.47;99969.81;10356676;28;20042;-66
2023/11/09 06:38:00;;;;;;;1999.90;999.90;;;;;;;14.30;94.73;99965.00;10378915;28;20485;-67
2023/11/09 06:43:03;;;;;;;1999.90;999.90;;;;;;;14.20;92.25;99990.44;10364750;28;20054;-67
2023/11/09 06:48:05;;;;;;;1999.90;999.90;;;;;;;14.12;92.80;99993.75;10381909;28;20116;-67
2023/11/09 06:53:08;;;;;;;1999.90;999.90;;;;;;;14.37;92.54;100003.97;10364246;28;20053;-67
2023/11/09 06:58:10;;;;;;;1999.90;999.90;;;;;;;13.67;96.85;99993.19;10364092;28;20054;-67
2023/11/09 07:03:13;;;;;;;1999.90;999.90;;;;;;;14.40;92.55;100007.16;10380230;28;20050;-67
2023/11/09 07:08:15;;;;;;;1999.90;999.90;;;;;;;14.18;93.93;100016.06;10380561;28;20508;-67
2023/11/09 07:13:17;;;;;;;1999.90;999.90;;;;;;;14.93;89.02;100010.56;10380904;28;20050;-66
2023/11/09 07:18:21;;;;;;;1999.90;999.90;;;;;;;14.31;88.87;100019.34;10380836;28;20058;-67
2023/11/09 07:23:24;;;;;;;1999.90;999.90;;;;;;;14.60;91.22;100028.38;10380628;28;20057;-67
2023/11/09 07:28:29;;;;;;;1999.90;999.90;;;;;;;14.21;92.57;100028.97;10379805;28;20156;-67
2023/11/09 07:33:31;;;;;;;1999.90;999.90;;;;;;;14.24;89.97;100035.78;10380060;28;20488;-67
2023/11/09 07:38:34;;;;;;;1999.90;999.90;;;;;;;14.45;92.77;100027.84;10362315;28;20493;-67
2023/11/09 07:43:36;;;;;;;1999.90;999.90;;;;;;;14.33;90.78;100045.53;10379185;28;20046;-67
2023/11/09 07:48:39;;;;;;;1999.90;999.90;;;;;;;13.98;93.49;100051.16;10379513;28;20054;-67
2023/11/09 07:53:41;;;;;;;1999.90;999.90;;;;;;;14.49;90.81;100048.53;10379437;28;20046;-67
2023/11/09 07:58:43;;;;;;;1999.90;999.90;;;;;;;14.48;91.48;100038.13;10379234;28;20049;-67
2023/11/09 08:03:46;;;;;;;1999.90;999.90;;;;;;;14.61;89.35;100040.59;10378935;28;20485;-67
2023/11/09 08:08:52;;;;;;;1999.90;999.90;;;;;;;14.75;89.16;100037.56;10378734;28;20057;-67
2023/11/09 08:13:54;;;;;;;1999.90;999.90;;;;;;;15.07;85.03;100027.81;10377887;28;20485;-67
2023/11/09 08:18:57;;;;;;;1999.90;999.90;;;;;;;14.47;90.86;100023.28;10378969;28;20148;-67
2023/11/09 08:24:01;;;;;;;1999.90;999.90;;;;;;;14.53;90.91;100032.47;10378177;28;20498;-67
2023/11/09 08:29:04;;;;;;;1999.90;999.90;;;;;;;14.71;91.61;100030.91;10377588;28;20080;-66
2023/11/09 08:34:07;;;;;;;1999.90;999.90;;;;;;;14.45;90.55;100033.13;10378258;28;20125;-66
2023/11/09 08:39:17;;;;;;;1999.90;999.90;;;;;;;15.36;85.34;100041.03;10377391;28;20057;-67
2023/11/09 08:44:20;;;;;;;1999.90;999.90;;;;;;;14.12;93.25;100054.28;10376870;28;20120;-66
2023/11/09 08:49:23;;;;;;;1999.90;999.90;;;;;;;14.87;88.00;100051.47;10377361;28;20084;-66
2023/11/09 08:54:26;;;;;;;1999.90;999.90;;;;;;;15.16;86.17;100056.84;10376341;28;20390;-66
2023/11/09 08:59:29;;;;;;;1999.90;999.90;;;;;;;14.63;88.25;100063.19;10376388;28;20064;-67
2023/11/09 09:04:34;;;;;;;1999.90;999.90;;;;;;;14.79;87.54;100073.25;10376357;28;20386;-67
2023/11/09 09:09:37;;;;;;;1999.90;999.90;;;;;;;15.23;85.78;100065.00;10374760;28;20104;-66
2023/11/09 09:14:51;;;;;;;1999.90;999.90;;;;;;;14.27;88.11;100081.13;10376407;28;20042;-66
2023/11/09 09:19:56;;;;;;;1999.90;999.90;;;;;;;14.49;89.97;100071.38;10376296;28;20056;-66
2023/11/09 09:24:58;;;;;;;1999.90;999.90;;;;;;;14.45;89.06;100081.34;10375493;28;20121;-66
2023/11/09 09:30:01;;;;;;;1999.90;999.90;;;;;;;13.98;90.08;100073.03;10375866;28;20052;-66
2023/11/09 09:35:10;;;;;;;1999.90;999.90;;;;;;;14.63;89.12;100063.19;10375427;28;20129;-65
2023/11/09 09:40:22;;;;;;;1999.90;999.90;;;;;;;15.58;87.92;100051.34;10358270;28;20477;-66
2023/11/09 09:45:33;;;;;;;1999.90;999.90;;;;;;;16.67;77.17;100050.16;10360008;28;20045;-66
2023/11/09 09:50:37;;;;;;;1999.90;999.90;;;;;;;16.02;76.30;100050.91;10375301;28;20084;-66
2023/11/09 09:55:41;;;;;;;1999.90;999.90;;;;;;;17.74;73.94;100048.69;10375529;28;20045;-66
2023/11/09 10:00:45;;;;;;;1999.90;999.90;;;;;;;18.64;70.86;100059.88;10374983;28;20160;-66
2023/11/09 10:05:47;;;;;;;1999.90;999.90;;;;;;;18.26;69.44;100062.00;10374310;28;20474;-66
2023/11/09 10:10:52;;;;;;;1999.90;999.90;;;;;;;17.05;72.18;100067.66;10376676;28;20085;-66
2023/11/09 10:15:56;;;;;;;1999.90;999.90;;;;;;;20.19;58.41;100061.19;10366088;28;20133;-66
2023/11/09 10:21:01;;;;;;;1999.90;999.90;;;;;;;19.31;59.69;100064.44;10365674;28;20046;-67
2023/11/09 10:26:03;;;;;;;1999.90;999.90;;;;;;;19.72;61.56;100068.97;10382205;28;20479;-66
2023/11/09 10:31:07;;;;;;;1999.90;999.90;;;;;;;17.57;65.31;100066.22;10382668;28;20564;-67
2023/11/09 10:36:10;;;;;;;1999.90;999.90;;;;;;;18.94;65.60;100068.31;10382186;28;20065;-66
2023/11/09 10:41:13;;;;;;;1999.90;999.90;;;;;;;18.90;64.83;100061.69;10364996;28;20060;-66
2023/11/09 10:46:37;;;;;;;1999.90;999.90;;;;;;;19.07;66.21;100054.63;10367687;28;20046;-67
2023/11/09 10:51:41;;;;;;;1999.90;999.90;;;;;;;18.17;64.81;100062.91;10364575;28;20046;-66
2023/11/09 10:56:44;;;;;;;1999.90;999.90;;;;;;;16.97;70.14;100062.28;10364285;28;20054;-66
2023/11/09 11:01:48;;;;;;;1999.90;999.90;;;;;;;18.55;64.52;100058.19;10363919;28;20209;-66
2023/11/09 11:06:51;;;;;;;1999.90;999.90;;;;;;;21.28;56.12;100045.50;10363552;28;20061;-67
2023/11/09 11:11:58;;;;;;;1999.90;999.90;;;;;;;19.54;59.74;100046.06;10363167;28;20084;-67
2023/11/09 11:17:28;;;;;;;1999.90;999.90;;;;;;;17.42;64.99;100047.41;10380980;28;20050;-67
2023/11/09 11:23:08;;;;;;;1999.90;999.90;;;;;;;16.85;65.86;100039.69;10380320;28;20049;-67
2023/11/09 11:28:11;;;;;;;1999.90;999.90;;;;;;;16.87;66.27;100033.25;10380503;28;20100;-67
2023/11/09 11:33:17;;;;;;;1999.90;999.90;;;;;;;15.91;68.97;100030.78;10363453;28;20133;-66
2023/11/09 11:38:26;;;;;;;1999.90;999.90;;;;;;;15.63;68.73;100019.22;10379511;28;20405;-66
2023/11/09 11:43:42;;;;;;;1999.90;999.90;;;;;;;16.45;63.77;100014.38;10380012;28;20053;-66
2023/11/09 11:48:49;;;;;;;1999.90;999.90;;;;;;;16.00;68.04;100015.88;10379811;28;20054;-66
2023/11/09 11:53:58;;;;;;;1999.90;999.90;;;;;;;15.56;68.54;100007.56;10345983;28;20053;-66
2023/11/09 11:59:06;;;;;;;1999.90;999.90;;;;;;;15.86;67.06;100008.41;10362528;28;20081;-65
2023/11/09 12:04:13;;;;;;;1999.90;999.90;;;;;;;15.97;66.04;100001.16;10379605;28;20053;-65
2023/11/09 12:09:18;;;;;;;1999.90;999.90;;;;;;;16.05;67.67;99994.34;10361545;28;20065;-66
2023/11/09 12:14:20;;;;;;;1999.90;999.90;;;;;;;16.38;63.19;99990.34;10379105;28;20085;-66
2023/11/09 12:19:23;;;;;;;1999.90;999.90;;;;;;;16.31;64.09;99992.72;10378099;28;20049;-65
2023/11/09 12:24:27;;;;;;;1999.90;999.90;;;;;;;16.00;65.40;99996.56;10378780;28;20085;-66
2023/11/09 12:29:31;;;;;;;1999.90;999.90;;;;;;;15.74;66.82;99987.41;10377969;28;20503;-65
2023/11/09 12:34:40;;;;;;;1999.90;999.90;;;;;;;16.44;64.59;99975.72;10377000;28;20052;-66
2023/11/09 12:39:43;;;;;;;1999.90;999.90;;;;;;;15.71;66.76;99971.03;10359682;28;20509;-66
2023/11/09 12:44:46;;;;;;;1999.90;999.90;;;;;;;15.94;65.85;99964.50;10360249;28;20049;-65
2023/11/09 12:49:52;;;;;;;1999.90;999.90;;;;;;;16.02;64.29;99960.28;10377339;28;20073;-65
2023/11/09 12:54:56;;;;;;;1999.90;999.90;;;;;;;15.24;66.79;99954.13;10359627;28;20050;-65
2023/11/09 12:59:59;;;;;;;1999.90;999.90;;;;;;;15.58;67.99;99945.81;10359932;28;20072;-65
2023/11/09 13:05:01;;;;;;;1999.90;999.90;;;;;;;16.36;66.19;99934.19;10376687;28;20042;-66
2023/11/09 13:10:19;;;;;;;1999.90;999.90;;;;;;;16.29;64.77;99933.09;10359878;28;20478;-65
2023/11/09 13:15:36;;;;;;;1999.90;999.90;;;;;;;15.83;65.72;99916.31;10377440;28;20052;-65
2023/11/09 13:20:39;;;;;;;1999.90;999.90;;;;;;;16.31;66.19;99907.38;10362066;28;20060;-65
2023/11/09 13:25:48;;;;;;;1999.90;999.90;;;;;;;16.44;66.21;99904.38;10359758;28;20046;-65
2023/11/09 13:30:53;;;;;;;1999.90;999.90;;;;;;;15.95;65.91;99904.59;10359093;28;20049;-65
2023/11/09 13:36:03;;;;;;;1999.90;999.90;;;;;;;15.86;68.04;99892.28;10376234;28;20064;-65
2023/11/09 13:41:16;;;;;;;1999.90;999.90;;;;;;;15.74;69.22;99884.50;10359346;28;20058;-65
2023/11/09 13:46:22;;;;;;;1999.90;999.90;;;;;;;16.12;68.22;99868.69;10357972;28;20379;-65
2023/11/09 13:51:27;;;;;;;1999.90;999.90;;;;;;;15.58;69.28;99861.38;10374621;28;20054;-65
2023/11/09 14:01:53;;;;;;;1999.90;999.90;;;;;;;15.24;70.95;99850.47;10374501;28;20400;-65
2023/11/09 14:07:01;;;;;;;1999.90;999.90;;;;;;;16.25;68.20;99847.22;10374833;28;20515;-65
2023/11/09 14:12:24;;;;;;;1999.90;999.90;;;;;;;15.58;68.38;99834.13;10358042;28;20129;-65
2023/11/09 14:17:33;;;;;;;1999.90;999.90;;;;;;;14.88;70.52;99825.66;10360445;28;20052;-66
2023/11/09 14:22:36;;;;;;;1999.90;999.90;;;;;;;15.36;69.93;99806.31;10358768;28;20061;-65
2023/11/09 14:27:41;;;;;;;1999.90;999.90;;;;;;;15.23;68.97;99796.06;10374720;28;20104;-65
2023/11/09 14:32:44;;;;;;;1999.90;999.90;;;;;;;15.90;68.51;99793.34;10374318;28;20053;-65
2023/11/09 14:37:46;;;;;;;1999.90;999.90;;;;;;;15.41;70.63;99789.06;10373861;28;20141;-65
2023/11/09 14:42:50;;;;;;;1999.90;999.90;;;;;;;15.84;68.92;99784.22;10374131;28;20049;-65
2023/11/09 14:48:10;;;;;;;1999.90;999.90;;;;;;;15.21;69.96;99779.56;10359815;28;20045;-65
2023/11/09 14:53:19;;;;;;;1999.90;999.90;;;;;;;15.54;69.73;99788.75;10356814;28;20046;-65
2023/11/09 14:58:35;;;;;;;1999.90;999.90;;;;;;;15.37;69.06;99773.69;10363902;28;20054;-65
2023/11/09 15:03:41;;;;;;;1999.90;999.90;;;;;;;15.34;69.72;99768.69;10381608;28;20535;-65
2023/11/09 15:08:43;;;;;;;1999.90;999.90;;;;;;;15.33;71.61;99751.19;10381306;28;20066;-65
2023/11/09 15:13:46;;;;;;;1999.90;999.90;;;;;;;14.95;70.96;99743.28;10380449;28;20050;-65
2023/11/09 15:18:50;;;;;;;1999.90;999.90;;;;;;;15.28;71.05;99735.84;10380901;28;20061;-65
2023/11/09 15:23:54;;;;;;;1999.90;999.90;;;;;;;14.89;70.92;99732.47;10380689;28;20069;-65
2023/11/09 15:28:56;;;;;;;1999.90;999.90;;;;;;;14.93;71.44;99723.28;10362483;28;20421;-65
2023/11/09 15:34:00;;;;;;;1999.90;999.90;;;;;;;14.75;72.33;99715.31;10380673;28;20104;-65
2023/11/09 15:39:04;;;;;;;1999.90;999.90;;;;;;;14.89;72.27;99706.94;10362208;28;20058;-66
2023/11/09 15:44:10;;;;;;;1999.90;999.90;;;;;;;15.30;72.58;99702.25;10363474;28;20100;-65
2023/11/09 15:49:12;;;;;;;1999.90;999.90;;;;;;;14.53;72.72;99697.97;10379644;28;20482;-65
2023/11/09 15:54:16;;;;;;;1999.90;999.90;;;;;;;14.58;70.70;99701.00;10393157;22;20061;-62
2023/11/09 15:59:19;;;;;;;1999.90;999.90;;;;;;;14.53;72.79;99697.97;10361588;28;20568;-62
2023/11/09 16:04:21;;;;;;;1999.90;999.90;;;;;;;15.00;72.55;99688.31;10361856;28;20081;-62
2023/11/09 16:09:27;;;;;;;1999.90;999.90;;;;;;;14.80;72.80;99684.09;10377149;28;20057;-62
2023/11/09 16:14:31;;;;;;;1999.90;999.90;;;;;;;14.54;72.83;99684.66;10361469;28;20456;-62
2023/11/09 16:19:34;;;;;;;1999.90;999.90;;;;;;;14.20;74.33;99681.63;10378576;28;20052;-62
2023/11/09 16:24:42;;;;;;;1999.90;999.90;;;;;;;14.47;71.76;99668.59;10361053;28;20042;-62
2023/11/09 16:29:47;;;;;;;1999.90;999.90;;;;;;;14.25;73.31;99674.97;10377779;28;20133;-62
2023/11/09 16:34:52;;;;;;;1999.90;999.90;;;;;;;14.77;73.28;99658.03;10377904;28;20046;-62
2023/11/09 16:39:55;;;;;;;1999.90;999.90;;;;;;;14.31;74.16;99655.16;10377796;28;20133;-62
2023/11/09 16:44:57;;;;;;;1999.90;999.90;;;;;;;14.52;74.95;99654.97;10376988;28;20084;-62
2023/11/09 16:50:01;;;;;;;1999.90;999.90;;;;;;;14.49;72.87;99650.00;10377240;28;20078;-62
2023/11/09 16:55:04;;;;;;;1999.90;999.90;;;;;;;13.98;76.46;99644.06;10376817;28;20046;-62
2023/11/09 17:00:11;;;;;;;1999.90;999.90;;;;;;;14.33;74.17;99649.75;10376776;28;20045;-62
2023/11/09 17:05:15;;;;;;;1999.90;999.90;;;;;;;14.44;75.60;99653.06;10359103;28;20045;-62
2023/11/09 17:10:17;;;;;;;1999.90;999.90;;;;;;;14.74;73.40;99666.19;10359096;28;20108;-62
2023/11/09 17:15:20;;;;;;;1999.90;999.90;;;;;;;12.06;90.58;99771.53;10375698;28;20125;-61
2023/11/09 17:20:22;;;;;;;1999.90;999.90;;;;;;;12.47;87.24;99748.97;10375907;28;20058;-61
2023/11/09 17:25:28;;;;;;;1999.90;999.90;;;;;;;12.33;86.54;99741.41;10376127;28;20046;-61
2023/11/09 17:30:36;;;;;;;1999.90;999.90;;;;;;;12.35;85.71;99718.47;10375501;28;20452;-61
2023/11/09 17:35:39;;;;;;;1999.90;999.90;;;;;;;12.25;86.93;99707.91;10375712;28;20077;-61
2023/11/09 17:40:42;;;;;;;1999.90;999.90;;;;;;;12.27;86.90;99711.22;10375666;28;20085;-61
2023/11/09 17:45:44;;;;;;;1999.90;999.90;;;;;;;12.12;87.56;99686.22;10374955;28;20442;-61
2023/11/09 17:50:46;;;;;;;1999.90;999.90;;;;;;;12.57;87.08;99665.84;10374392;28;20057;-61
2023/11/09 17:55:49;;;;;;;1999.90;999.90;;;;;;;12.35;88.28;99655.47;10375166;28;20052;-62
2023/11/09 18:00:52;;;;;;;1999.90;999.90;;;;;;;12.15;87.58;99660.56;10374502;28;20420;-62
2023/11/09 18:05:55;;;;;;;1999.90;999.90;;;;;;;12.56;85.87;99643.19;10375093;28;20050;-62
2023/11/09 18:10:57;;;;;;;1999.90;999.90;;;;;;;12.23;85.91;99646.84;10374940;28;20056;-62
2023/11/09 18:16:00;;;;;;;1999.90;999.90;;;;;;;12.82;84.98;99637.53;10374793;28;20145;-62
2023/11/09 18:21:03;;;;;;;1999.90;999.90;;;;;;;12.38;84.50;99642.94;10374712;28;20057;-62
2023/11/09 18:26:07;;;;;;;1999.90;999.90;;;;;;;12.01;87.43;99645.97;10374011;28;20056;-62
2023/11/09 18:31:09;;;;;;;1999.90;999.90;;;;;;;11.95;89.60;99629.91;10374680;28;20405;-62
2023/11/09 18:36:12;;;;;;;1999.90;999.90;;;;;;;12.18;89.86;99620.16;10365079;28;20161;-62
2023/11/09 18:41:16;;;;;;;1999.90;999.90;;;;;;;12.66;86.28;99624.88;10381803;28;20140;-62
2023/11/09 18:46:19;;;;;;;1999.90;999.90;;;;;;;12.17;89.27;99615.84;10364948;28;20133;-62
2023/11/09 18:51:25;;;;;;;1999.90;999.90;;;;;;;11.97;88.32;99625.34;10381737;28;20071;-62
2023/11/09 18:56:28;;;;;;;1999.90;999.90;;;;;;;11.92;88.91;99610.00;10364541;28;20046;-62
2023/11/09 19:01:30;;;;;;;1999.90;999.90;;;;;;;11.95;90.36;99611.53;10381709;28;20104;-62
2023/11/09 19:06:33;;;;;;;1999.90;999.90;;;;;;;12.17;89.52;99603.56;10380849;28;20046;-62
2023/11/09 19:11:35;;;;;;;1999.90;999.90;;;;;;;12.39;86.39;99613.09;10381275;28;20058;-62
2023/11/09 19:16:39;;;;;;;1999.90;999.90;;;;;;;12.12;87.68;99618.00;10363452;28;20058;-62
2023/11/09 19:21:42;;;;;;;1999.90;999.90;;;;;;;12.16;89.84;99629.94;10380889;28;20057;-62
2023/11/09 19:26:47;;;;;;;1999.90;999.90;;;;;;;11.77;90.46;99629.56;10380723;28;20182;-62
2023/11/09 19:31:50;;;;;;;1999.90;999.90;;;;;;;11.86;91.10;99644.56;10362599;28;20497;-62
2023/11/09 19:36:52;;;;;;;1999.90;999.90;;;;;;;12.11;90.76;99637.34;10379806;28;20489;-62
2023/11/09 19:41:55;;;;;;;1999.90;999.90;;;;;;;11.49;89.60;99624.75;10379127;28;20054;-62
2023/11/09 19:46:57;;;;;;;1999.90;999.90;;;;;;;11.69;94.07;99636.28;10362705;28;20048;-62
2023/11/09 19:52:00;;;;;;;1999.90;999.90;;;;;;;12.18;90.15;99641.97;10361987;28;20068;-62
2023/11/09 19:57:02;;;;;;;1999.90;999.90;;;;;;;11.73;90.69;99651.75;10379547;28;20128;-62
2023/11/09 20:02:06;;;;;;;1999.90;999.90;;;;;;;12.13;88.08;99644.13;10378709;28;20417;-62
2023/11/09 20:07:08;;;;;;;1999.90;999.90;;;;;;;12.24;88.43;99638.00;10378532;28;20172;-62
2023/11/09 20:12:10;;;;;;;1999.90;999.90;;;;;;;11.84;89.90;99638.63;10378376;28;20481;-62
2023/11/09 20:17:13;;;;;;;1999.90;999.90;;;;;;;12.20;89.59;99637.41;10378692;28;20053;-62
2023/11/09 20:22:15;;;;;;;1999.90;999.90;;;;;;;12.04;91.70;99627.38;10378056;28;20076;-62
2023/11/09 20:27:17;;;;;;;1999.90;999.90;;;;;;;11.84;92.22;99628.13;10378382;28;20056;-62
2023/11/09 20:32:20;;;;;;;1999.90;999.90;;;;;;;12.14;91.99;99621.34;10377564;28;20081;-62
2023/11/09 20:37:25;;;;;;;1999.90;999.90;;;;;;;11.65;92.13;99620.91;10377402;28;20057;-62
2023/11/09 20:42:28;;;;;;;1999.90;999.90;;;;;;;11.82;92.33;99628.25;10378607;28;20084;-62
2023/11/09 20:47:41;;;;;;;1999.90;999.90;;;;;;;12.40;90.10;99614.75;10377036;28;20461;-62
2023/11/09 20:52:47;;;;;;;1999.90;999.90;;;;;;;11.52;91.93;99624.50;10377320;28;20085;-62
2023/11/09 20:57:52;;;;;;;1999.90;999.90;;;;;;;11.93;88.82;99629.19;10359623;28;20050;-62
2023/11/09 21:02:55;;;;;;;1999.90;999.90;;;;;;;11.61;92.96;99632.59;10376957;28;20045;-61
2023/11/09 21:07:58;;;;;;;1999.90;999.90;;;;;;;12.03;89.09;99637.97;10376821;28;20045;-62
2023/11/09 21:13:01;;;;;;;1999.90;999.90;;;;;;;12.32;87.51;99627.69;10376637;28;20053;-62
2023/11/09 21:18:03;;;;;;;1999.90;999.90;;;;;;;11.96;87.06;99635.03;10376384;28;20115;-62
2023/11/09 21:23:06;;;;;;;1999.90;999.90;;;;;;;12.47;86.84;99636.06;10376273;28;20069;-62
2023/11/09 21:28:08;;;;;;;1999.90;999.90;;;;;;;12.02;87.91;99617.94;10376105;28;20050;-62
2023/11/09 21:33:11;;;;;;;1999.90;999.90;;;;;;;12.13;87.47;99622.31;10375796;28;20156;-62
2023/11/09 21:38:14;;;;;;;1999.90;999.90;;;;;;;11.98;87.16;99622.59;10375802;28;20058;-62
2023/11/09 21:43:19;;;;;;;1999.90;999.90;;;;;;;12.15;86.91;99602.84;10375627;28;20053;-62
2023/11/09 21:48:22;;;;;;;1999.90;999.90;;;;;;;12.01;85.18;99609.25;10376008;28;20081;-62
2023/11/09 21:53:25;;;;;;;1999.90;999.90;;;;;;;12.19;84.87;99601.66;10374877;28;20141;-62
2023/11/09 21:58:27;;;;;;;1999.90;999.90;;;;;;;11.85;87.54;99609.66;10374612;28;20049;-62
2023/11/09 22:03:29;;;;;;;1999.90;999.90;;;;;;;11.54;91.21;99598.19;10375130;28;20045;-62
2023/11/09 22:08:33;;;;;;;1999.90;999.90;;;;;;;11.88;84.92;99598.06;10374914;28;20053;-62
2023/11/09 22:13:36;;;;;;;1999.90;999.90;;;;;;;12.06;86.99;99593.13;10374978;28;20052;-62
2023/11/09 22:18:39;;;;;;;1999.90;999.90;;;;;;;11.79;88.35;99590.97;10375059;28;20053;-62
2023/11/09 22:23:41;;;;;;;1999.90;999.90;;;;;;;12.06;87.93;99591.34;10374083;28;20125;-62